createdAt,value
2023-03-17T00:01:27.615Z,6.01
2023-03-17T00:06:35.244Z,5.71
2023-03-17T00:11:38.418Z,5.89
2023-03-17T00:16:44.165Z,5.78
2023-03-17T00:21:49.326Z,5.44
2023-03-17T00:26:53.361Z,5.17
2023-03-17T00:31:58.897Z,4.49
2023-03-17T00:37:04.292Z,5.11
2023-03-17T00:42:07.887Z,5.60
2023-03-17T00:47:13.139Z,5.99
2023-03-17T00:52:17.957Z,5.72
2023-03-17T00:57:21.195Z,5.87
2023-03-17T01:02:24.795Z,6.04
2023-03-17T01:07:30.534Z,6.04
2023-03-17T01:12:33.947Z,5.95
2023-03-17T01:17:38.148Z,6.12
2023-03-17T01:22:43.044Z,6.06
2023-03-17T01:27:48.013Z,6.02
2023-03-17T01:32:51.559Z,5.74
2023-03-17T01:37:57.254Z,5.65
2023-03-17T01:43:05.685Z,5.55
2023-03-17T01:48:09.237Z,5.66
2023-03-17T01:53:14.449Z,5.47
2023-03-17T01:58:19.388Z,5.75
2023-03-17T02:03:24.090Z,5.45
2023-03-17T02:08:28.760Z,5.15
2023-03-17T02:13:32.968Z,5.29
2023-03-17T02:18:36.158Z,5.34
2023-03-17T02:23:41.489Z,5.22
2023-03-17T02:28:46.317Z,5.00
2023-03-17T02:33:49.690Z,5.26
2023-03-17T02:38:54.997Z,5.23
2023-03-17T02:43:58.400Z,5.21
2023-03-17T02:49:02.704Z,5.15
2023-03-17T02:54:07.341Z,5.56
2023-03-17T02:59:11.233Z,5.70
2023-03-17T03:04:14.411Z,5.60
2023-03-17T03:09:19.071Z,5.58
2023-03-17T03:14:22.186Z,5.68
2023-03-17T03:19:25.425Z,5.61
2023-03-17T03:24:30.167Z,5.67
2023-03-17T03:29:33.570Z,5.63
2023-03-17T03:34:36.748Z,5.60
2023-03-17T03:39:41.538Z,5.68
2023-03-17T03:44:44.818Z,5.73
2023-03-17T03:49:48.144Z,5.77
2023-03-17T03:54:52.770Z,5.64
2023-03-17T03:59:56.276Z,5.72
2023-03-17T04:04:59.529Z,5.64
2023-03-17T04:10:04.983Z,5.58
2023-03-17T04:15:11.286Z,5.50
2023-03-17T04:20:16.534Z,5.48
2023-03-17T04:25:22.442Z,5.39
2023-03-17T04:30:26.475Z,5.32
2023-03-17T04:35:29.799Z,5.12
2023-03-17T04:40:34.386Z,5.08
2023-03-17T04:45:37.786Z,5.00
2023-03-17T04:50:42.444Z,5.03
2023-03-17T04:55:47.253Z,5.05
2023-03-17T05:00:50.880Z,5.31
2023-03-17T05:05:55.020Z,5.15
2023-03-17T05:11:01.565Z,5.21
2023-03-17T05:16:06.520Z,5.41
2023-03-17T05:21:11.142Z,5.52
2023-03-17T05:26:16.732Z,5.50
2023-03-17T05:31:20.378Z,5.37
2023-03-17T05:36:24.559Z,5.51
2023-03-17T05:41:29.598Z,5.40
2023-03-17T05:46:32.861Z,5.33
2023-03-17T05:51:37.043Z,5.64
2023-03-17T05:56:43.009Z,5.51
2023-03-17T06:01:46.522Z,5.51
2023-03-17T06:06:49.967Z,5.26
2023-03-17T06:11:54.571Z,4.94
2023-03-17T06:16:58.066Z,4.71
2023-03-17T06:22:01.285Z,4.43
2023-03-17T06:27:06.170Z,4.63
2023-03-17T06:32:20.307Z,5.17
2023-03-17T06:37:24.396Z,5.78
2023-03-17T06:42:29.121Z,6.03
2023-03-17T06:47:32.438Z,6.17
2023-03-17T06:52:36.083Z,6.93
2023-03-17T06:57:40.653Z,8.06
2023-03-17T07:02:44.273Z,8.46
2023-03-17T07:07:47.472Z,9.31
2023-03-17T07:12:52.256Z,9.79
2023-03-17T07:17:56.009Z,10.40
2023-03-17T07:22:59.646Z,10.93
2023-03-17T07:28:04.855Z,10.57
2023-03-17T07:33:08.421Z,11.16
2023-03-17T07:38:12.027Z,11.55
2023-03-17T07:43:17.782Z,11.85
2023-03-17T07:48:21.330Z,11.78
2023-03-17T07:53:25.291Z,11.16
2023-03-17T07:58:30.081Z,11.78
2023-03-17T08:03:34.093Z,12.31
2023-03-17T08:08:38.232Z,12.59
2023-03-17T08:13:42.774Z,13.02
2023-03-17T08:18:45.980Z,12.85
2023-03-17T08:23:49.812Z,13.58
2023-03-17T08:28:54.445Z,13.53
2023-03-17T08:33:57.922Z,13.64
2023-03-17T08:39:01.208Z,13.64
2023-03-17T08:44:05.883Z,14.06
2023-03-17T08:49:09.693Z,14.02
2023-03-17T08:54:14.143Z,13.92
2023-03-17T08:59:19.003Z,13.78
2023-03-17T09:04:23.480Z,13.86
2023-03-17T09:09:26.730Z,14.42
2023-03-17T09:14:40.077Z,14.10
2023-03-17T09:19:46.020Z,13.66
2023-03-17T09:24:49.369Z,14.70
2023-03-17T09:29:54.183Z,14.75
2023-03-17T09:34:57.690Z,15.26
2023-03-17T09:40:01.207Z,14.96
2023-03-17T09:45:21.160Z,15.43
2023-03-17T09:50:28.431Z,15.36
2023-03-17T09:55:34.206Z,15.50
2023-03-17T10:00:39.633Z,15.82
2023-03-17T10:05:42.835Z,15.59
2023-03-17T10:10:49.522Z,15.84
2023-03-17T10:15:59.414Z,16.01
2023-03-17T10:21:06.054Z,16.23
2023-03-17T10:26:22.181Z,15.80
2023-03-17T10:31:33.202Z,16.15
2023-03-17T10:36:39.153Z,16.49
2023-03-17T10:41:55.610Z,16.57
2023-03-17T10:47:00.837Z,15.86
2023-03-17T10:52:08.902Z,16.38
2023-03-17T10:57:15.486Z,16.38
2023-03-17T11:02:25.290Z,16.17
2023-03-17T11:07:31.518Z,16.29
2023-03-17T11:12:40.174Z,16.02
2023-03-17T11:17:53.148Z,16.41
2023-03-17T11:23:04.858Z,16.73
2023-03-17T11:28:20.355Z,16.97
2023-03-17T11:33:36.656Z,17.37
2023-03-17T11:38:50.036Z,17.08
2023-03-17T11:44:09.239Z,17.02
2023-03-17T11:49:19.121Z,17.20
2023-03-17T11:54:29.901Z,17.11
2023-03-17T11:59:39.835Z,16.98
2023-03-17T12:04:53.200Z,17.31
2023-03-17T12:10:05.173Z,17.01
2023-03-17T12:15:16.863Z,16.69
2023-03-17T12:20:31.155Z,16.59
2023-03-17T12:25:37.193Z,16.56
2023-03-17T12:30:51.322Z,16.49
2023-03-17T12:35:56.088Z,16.50
2023-03-17T12:41:21.408Z,16.67
2023-03-17T12:46:45.675Z,16.94
2023-03-17T12:52:05.532Z,16.76
2023-03-17T12:57:16.080Z,17.55
2023-03-17T13:02:32.151Z,17.47
2023-03-17T13:07:42.361Z,17.59
2023-03-17T13:13:12.058Z,17.56
2023-03-17T13:18:50.421Z,17.46
2023-03-17T13:24:38.842Z,17.45
2023-03-17T13:29:48.769Z,16.69
2023-03-17T13:34:53.939Z,16.61
2023-03-17T13:40:17.574Z,16.60
2023-03-17T13:45:37.340Z,16.88
2023-03-17T13:50:41.394Z,16.74
2023-03-17T13:56:09.774Z,16.88
2023-03-17T14:01:15.359Z,17.24
2023-03-17T14:06:21.180Z,16.94
2023-03-17T14:11:29.893Z,16.94
2023-03-17T14:16:36.972Z,17.04
2023-03-17T14:21:40.855Z,17.01
2023-03-17T14:26:45.671Z,16.94
2023-03-17T14:31:51.039Z,16.71
2023-03-17T14:36:54.370Z,16.82
2023-03-17T14:42:05.002Z,17.14
2023-03-17T14:47:16.101Z,16.70
2023-03-17T14:52:21.920Z,16.29
2023-03-17T14:57:32.755Z,16.47
2023-03-17T15:02:38.093Z,16.09
2023-03-17T15:07:43.454Z,16.41
2023-03-17T15:12:49.364Z,16.24
2023-03-17T15:17:55.750Z,15.94
2023-03-17T15:23:01.888Z,15.77
2023-03-17T15:28:12.696Z,15.83
2023-03-17T15:33:23.016Z,15.93
2023-03-17T15:38:26.761Z,15.82
2023-03-17T15:43:31.820Z,15.57
2023-03-17T15:48:37.486Z,15.47
2023-03-17T15:53:40.691Z,15.30
2023-03-17T15:58:45.444Z,14.96
2023-03-17T16:03:49.866Z,15.07
2023-03-17T16:08:53.259Z,15.02
2023-03-17T16:13:59.770Z,14.61
2023-03-17T16:19:04.793Z,14.61
2023-03-17T16:24:10.424Z,14.55
2023-03-17T16:29:16.554Z,14.54
2023-03-17T16:34:21.709Z,14.22
2023-03-17T16:39:26.575Z,14.13
2023-03-17T16:44:31.943Z,14.05
2023-03-17T16:49:35.654Z,13.93
2023-03-17T16:54:42.407Z,13.83
2023-03-17T16:59:47.489Z,13.48
2023-03-17T17:04:51.254Z,13.27
2023-03-17T17:09:55.252Z,13.22
2023-03-17T17:14:59.938Z,12.75
2023-03-17T17:20:04.744Z,12.64
2023-03-17T17:25:10.145Z,12.72
2023-03-17T17:30:16.947Z,12.26
2023-03-17T17:35:20.602Z,12.14
2023-03-17T17:40:25.916Z,12.02
2023-03-17T17:45:30.748Z,11.79
2023-03-17T17:50:34.234Z,11.32
2023-03-17T17:55:37.909Z,11.52
2023-03-17T18:00:44.613Z,11.33
2023-03-17T18:05:47.989Z,11.52
2023-03-17T18:10:52.261Z,11.34
2023-03-17T18:15:57.154Z,11.20
2023-03-17T18:21:00.293Z,11.01
2023-03-17T18:26:06.048Z,10.89
2023-03-17T18:31:14.483Z,10.77
2023-03-17T18:36:18.948Z,10.74
2023-03-17T18:41:22.337Z,10.66
2023-03-17T18:46:26.816Z,10.47
2023-03-17T18:51:30.074Z,10.32
2023-03-17T18:56:33.653Z,10.30
2023-03-17T19:01:38.397Z,10.05
2023-03-17T19:06:42.980Z,10.04
2023-03-17T19:11:46.409Z,10.19
2023-03-17T19:16:51.311Z,10.60
2023-03-17T19:21:54.899Z,11.38
2023-03-17T19:26:58.296Z,11.99
2023-03-17T19:32:02.915Z,12.17
2023-03-17T19:37:06.063Z,12.08
2023-03-17T19:42:09.465Z,12.31
2023-03-17T19:47:13.999Z,12.26
2023-03-17T19:52:17.240Z,12.12
2023-03-17T19:57:20.992Z,12.10
2023-03-17T20:02:25.757Z,11.88
2023-03-17T20:07:29.097Z,11.46
2023-03-17T20:12:32.900Z,11.56
2023-03-17T20:17:37.754Z,11.23
2023-03-17T20:22:43.594Z,10.97
2023-03-17T20:27:47.008Z,10.91
2023-03-17T20:32:51.611Z,10.81
2023-03-17T20:37:57.069Z,10.70
2023-03-17T20:43:00.243Z,10.43
2023-03-17T20:48:06.731Z,10.31
2023-03-17T20:53:11.713Z,10.36
2023-03-17T20:58:14.805Z,10.98
2023-03-17T21:03:20.988Z,11.27
2023-03-17T21:08:25.084Z,11.50
2023-03-17T21:13:28.634Z,11.72
2023-03-17T21:18:33.254Z,11.60
2023-03-17T21:23:38.814Z,11.41
2023-03-17T21:28:43.531Z,11.20
2023-03-17T21:33:50.547Z,11.21
2023-03-17T21:38:54.318Z,11.13
2023-03-17T21:43:58.036Z,11.16
2023-03-17T21:49:02.672Z,10.76
2023-03-17T21:54:06.428Z,10.01
2023-03-17T21:59:11.053Z,9.45
2023-03-17T22:04:15.619Z,9.65
2023-03-17T22:09:19.462Z,9.34
2023-03-17T22:14:23.023Z,9.98
2023-03-17T22:19:28.890Z,10.39
2023-03-17T22:24:32.474Z,10.93
2023-03-17T22:29:35.804Z,11.25
2023-03-17T22:34:40.498Z,11.18
2023-03-17T22:39:43.926Z,11.35
2023-03-17T22:44:47.404Z,11.47
2023-03-17T22:49:52.790Z,11.54
2023-03-17T22:54:56.330Z,11.56
2023-03-17T22:59:59.552Z,11.43
2023-03-17T23:05:04.448Z,11.40
2023-03-17T23:10:09.174Z,11.31
2023-03-17T23:15:13.426Z,11.18
2023-03-17T23:20:19.114Z,11.07
2023-03-17T23:25:22.862Z,11.05
2023-03-17T23:30:26.674Z,10.97
2023-03-17T23:35:31.746Z,10.72
2023-03-17T23:40:35.222Z,10.56
2023-03-17T23:45:38.977Z,10.34
2023-03-17T23:50:44.176Z,10.28
2023-03-17T23:55:47.461Z,10.25
